Time,TemperatureF,DewpointF,PressureIn,WindDirection,WindDirectionDegrees,WindSpeedMPH,WindSpeedGustMPH,Humidity,HourlyPrecipIn,Conditions,Clouds,dailyrainin,SoftwareType,DateUTC
2013-12-20 00:02:00,34.7,15.0,24.98,NW,318,11.0,-999.0,44,-99.99,,,-99.99,dwt +perl,2013-12-20 08:02:00,
2013-12-20 00:07:00,34.5,14.9,24.98,NW,326,7.0,-999.0,44,-99.99,,,-99.99,dwt +perl,2013-12-20 08:07:00,
2013-12-20 00:12:00,34.3,15.7,24.98,NNW,333,13.0,-999.0,46,-99.99,,,-99.99,dwt +perl,2013-12-20 08:12:00,
2013-12-20 00:17:00,34.3,15.2,24.98,NNW,341,13.0,-999.0,45,-99.99,,,-99.99,dwt +perl,2013-12-20 08:17:00,
2013-12-20 00:22:00,34.3,14.1,24.98,NW,322,17.0,-999.0,43,-99.99,,,-99.99,dwt +perl,2013-12-20 08:22:00,
2013-12-20 00:27:00,34.3,14.7,24.98,NNW,335,16.0,-999.0,44,-99.99,,,-99.99,dwt +perl,2013-12-20 08:27:00,
2013-12-20 00:32:00,33.9,15.8,24.98,NW,307,8.0,-999.0,47,-99.99,,,-99.99,dwt +perl,2013-12-20 08:32:00,
2013-12-20 00:37:00,33.6,15.5,24.98,NW,321,7.0,-999.0,47,-99.99,,,-99.99,dwt +perl,2013-12-20 08:37:00,
2013-12-20 00:42:00,33.5,15.4,24.98,NW,310,13.0,-999.0,47,-99.99,,,-99.99,dwt +perl,2013-12-20 08:42:00,
2013-12-20 00:47:00,33.3,14.8,24.97,NW,316,16.0,-999.0,46,-99.99,,,-99.99,dwt +perl,2013-12-20 08:47:00,
2013-12-20 00:52:00,33.4,15.4,24.98,WNW,290,12.0,-999.0,47,-99.99,,,-99.99,dwt +perl,2013-12-20 08:52:00,
2013-12-20 00:57:00,33.4,15.4,24.98,NW,320,12.0,-999.0,47,-99.99,,,-99.99,dwt +perl,2013-12-20 08:57:00,
2013-12-20 01:02:00,33.3,15.3,24.98,NW,324,8.0,-999.0,47,-99.99,,,-99.99,dwt +perl,2013-12-20 09:02:00,
2013-12-20 01:07:00,33.2,15.2,24.97,NW,311,14.0,-999.0,47,-99.99,,,-99.99,dwt +perl,2013-12-20 09:07:00,
2013-12-20 01:12:00,33.3,15.3,24.98,NW,305,6.0,-999.0,47,-99.99,,,-99.99,dwt +perl,2013-12-20 09:12:00,
2013-12-20 01:17:00,33.2,15.2,24.98,NW,310,13.0,-999.0,47,-99.99,,,-99.99,dwt +perl,2013-12-20 09:17:00,
2013-12-20 01:22:00,33.3,14.8,24.98,NW,320,16.0,-999.0,46,-99.99,,,-99.99,dwt +perl,2013-12-20 09:22:00,
2013-12-20 01:27:00,33.7,14.1,24.98,NW,318,15.0,-999.0,44,-99.99,,,-99.99,dwt +perl,2013-12-20 09:27:00,
2013-12-20 01:32:00,33.9,14.3,24.97,NW,316,14.0,-999.0,44,-99.99,,,-99.99,dwt +perl,2013-12-20 09:32:00,
2013-12-20 01:37:00,33.8,14.2,24.97,NNW,329,12.0,-999.0,44,-99.99,,,-99.99,dwt +perl,2013-12-20 09:37:00,
2013-12-20 01:42:00,33.8,13.7,24.97,NW,313,16.0,-999.0,43,-99.99,,,-99.99,dwt +perl,2013-12-20 09:42:00,
2013-12-20 01:47:00,34.1,12.9,24.98,NW,311,17.0,-999.0,41,-99.99,,,-99.99,dwt +perl,2013-12-20 09:47:00,
2013-12-20 01:52:00,34.2,12.4,24.98,NW,304,15.0,-999.0,40,-99.99,,,-99.99,dwt +perl,2013-12-20 09:52:00,
2013-12-20 01:57:00,34.0,12.2,24.98,NW,312,13.0,-999.0,40,-99.99,,,-99.99,dwt +perl,2013-12-20 09:57:00,
2013-12-20 02:02:00,33.9,11.6,24.98,NW,318,18.0,-999.0,39,-99.99,,,-99.99,dwt +perl,2013-12-20 10:02:00,
2013-12-20 02:07:00,34.4,11.4,24.98,NW,316,13.0,-999.0,38,-99.99,,,-99.99,dwt +perl,2013-12-20 10:07:00,
2013-12-20 02:12:00,34.5,10.9,24.98,NNW,341,11.0,-999.0,37,-99.99,,,-99.99,dwt +perl,2013-12-20 10:12:00,
2013-12-20 02:17:00,34.2,10.7,24.98,NNW,339,12.0,-999.0,37,-99.99,,,-99.99,dwt +perl,2013-12-20 10:17:00,
2013-12-20 02:22:00,33.9,11.6,24.98,NW,322,13.0,-999.0,39,-99.99,,,-99.99,dwt +perl,2013-12-20 10:22:00,
2013-12-20 02:27:00,33.9,10.4,24.98,NW,322,8.0,-999.0,37,-99.99,,,-99.99,dwt +perl,2013-12-20 10:27:00,
2013-12-20 02:32:00,34.4,9.0,24.98,NW,326,14.0,-999.0,34,-99.99,,,-99.99,dwt +perl,2013-12-20 10:32:00,
2013-12-20 02:37:00,34.1,11.2,24.98,NW,306,14.0,-999.0,38,-99.99,,,-99.99,dwt +perl,2013-12-20 10:37:00,
2013-12-20 02:42:00,33.4,12.3,24.98,WNW,299,10.0,-999.0,41,-99.99,,,-99.99,dwt +perl,2013-12-20 10:42:00,
2013-12-20 02:47:00,32.4,11.9,24.98,WNW,303,12.0,-999.0,42,-99.99,,,-99.99,dwt +perl,2013-12-20 10:47:00,
2013-12-20 02:52:00,33.8,9.1,24.98,NW,309,14.0,-999.0,35,-99.99,,,-99.99,dwt +perl,2013-12-20 10:52:00,
2013-12-20 02:57:00,34.3,8.2,24.97,NW,316,15.0,-999.0,33,-99.99,,,-99.99,dwt +perl,2013-12-20 10:57:00,
2013-12-20 03:02:00,34.5,8.4,24.98,NW,308,17.0,-999.0,33,-99.99,,,-99.99,dwt +perl,2013-12-20 11:02:00,
2013-12-20 03:07:00,35.2,6.2,24.98,NW,320,15.0,-999.0,29,-99.99,,,-99.99,dwt +perl,2013-12-20 11:07:00,
2013-12-20 03:12:00,35.5,6.4,24.98,NW,314,15.0,-999.0,29,-99.99,,,-99.99,dwt +perl,2013-12-20 11:12:00,
2013-12-20 03:17:00,35.4,6.3,24.98,NW,313,14.0,-999.0,29,-99.99,,,-99.99,dwt +perl,2013-12-20 11:17:00,
2013-12-20 03:22:00,34.9,7.4,24.97,NW,304,13.0,-999.0,31,-99.99,,,-99.99,dwt +perl,2013-12-20 11:22:00,
2013-12-20 03:27:00,34.9,6.7,24.98,NW,312,16.0,-999.0,30,-99.99,,,-99.99,dwt +perl,2013-12-20 11:27:00,
2013-12-20 03:32:00,35.3,6.2,24.97,NW,308,12.0,-999.0,29,-99.99,,,-99.99,dwt +perl,2013-12-20 11:32:00,
2013-12-20 03:42:00,36.7,4.2,24.97,North,354,5.0,-999.0,25,-99.99,,,-99.99,dwt +perl,2013-12-20 11:42:00,
2013-12-20 03:47:00,36.7,5.1,24.97,NW,326,10.0,-999.0,26,-99.99,,,-99.99,dwt +perl,2013-12-20 11:47:00,
2013-12-20 03:49:00,35.7,5.8,24.97,NW,321,11.0,-999.0,28,-99.99,,,-99.99,dwt +perl,2013-12-20 11:49:00,
2013-12-20 03:52:00,36.5,5.7,24.97,NNW,329,6.0,-999.0,27,-99.99,,,-99.99,dwt +perl,2013-12-20 11:52:00,
2013-12-20 04:02:00,36.0,7.6,24.97,NNW,331,4.0,-999.0,30,-99.99,,,-99.99,dwt +perl,2013-12-20 12:02:00,
2013-12-20 04:07:00,35.5,7.2,24.97,North,359,5.0,-999.0,30,-99.99,,,-99.99,dwt +perl,2013-12-20 12:07:00,
2013-12-20 04:09:00,36.3,5.6,24.97,NW,320,5.0,-999.0,27,-99.99,,,-99.99,dwt +perl,2013-12-20 12:09:00,
2013-12-20 04:12:00,35.6,6.5,24.97,NW,324,5.0,-999.0,29,-99.99,,,-99.99,dwt +perl,2013-12-20 12:12:00,
2013-12-20 04:17:00,35.8,5.9,24.97,North,4,7.0,-999.0,28,-99.99,,,-99.99,dwt +perl,2013-12-20 12:17:00,
2013-12-20 04:32:00,36.6,5.8,24.96,NE,37,9.0,-999.0,27,-99.99,,,-99.99,dwt +perl,2013-12-20 12:32:00,
2013-12-20 04:34:00,36.7,5.1,24.96,NNE,18,6.0,-999.0,26,-99.99,,,-99.99,dwt +perl,2013-12-20 12:34:00,
2013-12-20 04:37:00,36.0,8.3,24.96,NNE,14,4.0,-999.0,31,-99.99,,,-99.99,dwt +perl,2013-12-20 12:37:00,
2013-12-20 04:39:00,36.3,7.1,24.96,North,10,5.0,-999.0,29,-99.99,,,-99.99,dwt +perl,2013-12-20 12:39:00,
2013-12-20 04:42:00,36.1,6.9,24.97,NE,34,8.0,-999.0,29,-99.99,,,-99.99,dwt +perl,2013-12-20 12:42:00,
2013-12-20 04:57:00,34.1,9.3,24.97,NNE,28,9.0,-999.0,35,-99.99,,,-99.99,dwt +perl,2013-12-20 12:57:00,
2013-12-20 04:59:00,35.2,9.0,24.97,NNE,28,7.0,-999.0,33,-99.99,,,-99.99,dwt +perl,2013-12-20 12:59:00,
2013-12-20 05:04:00,33.7,9.0,24.97,NNE,33,8.0,-999.0,35,-99.99,,,-99.99,dwt +perl,2013-12-20 13:04:00,
2013-12-20 05:07:00,33.3,9.9,24.98,NNE,33,10.0,-999.0,37,-99.99,,,-99.99,dwt +perl,2013-12-20 13:07:00,
2013-12-20 05:14:00,32.9,10.1,24.97,NE,34,9.0,-999.0,38,-99.99,,,-99.99,dwt +perl,2013-12-20 13:14:00,
2013-12-20 05:17:00,31.2,10.3,24.97,NNE,21,12.0,-999.0,41,-99.99,,,-99.99,dwt +perl,2013-12-20 13:17:00,
2013-12-20 05:22:00,31.2,10.3,24.97,NNE,29,8.0,-999.0,41,-99.99,,,-99.99,dwt +perl,2013-12-20 13:22:00,
2013-12-20 05:24:00,31.7,10.7,24.97,NNE,30,11.0,-999.0,41,-99.99,,,-99.99,dwt +perl,2013-12-20 13:24:00,
2013-12-20 05:27:00,31.1,10.7,24.97,NNE,27,12.0,-999.0,42,-99.99,,,-99.99,dwt +perl,2013-12-20 13:27:00,
2013-12-20 05:32:00,31.3,10.4,24.97,NNE,26,8.0,-999.0,41,-99.99,,,-99.99,dwt +perl,2013-12-20 13:32:00,
2013-12-20 05:37:00,31.4,10.4,24.97,NNE,29,12.0,-999.0,41,-99.99,,,-99.99,dwt +perl,2013-12-20 13:37:00,
2013-12-20 05:42:00,32.0,10.4,24.97,NNE,25,15.0,-999.0,40,-99.99,,,-99.99,dwt +perl,2013-12-20 13:42:00,
2013-12-20 05:47:00,30.8,9.9,24.97,NNE,23,10.0,-999.0,41,-99.99,,,-99.99,dwt +perl,2013-12-20 13:47:00,
2013-12-20 05:52:00,29.7,8.9,24.97,NE,34,9.0,-999.0,41,-99.99,,,-99.99,dwt +perl,2013-12-20 13:52:00,
2013-12-20 05:57:00,28.9,8.2,24.97,NNE,31,9.0,-999.0,41,-99.99,,,-99.99,dwt +perl,2013-12-20 13:57:00,
2013-12-20 06:02:00,28.7,8.5,24.98,NE,35,10.0,-999.0,42,-99.99,,,-99.99,dwt +perl,2013-12-20 14:02:00,
2013-12-20 06:07:00,28.9,7.6,24.98,NNE,14,11.0,-999.0,40,-99.99,,,-99.99,dwt +perl,2013-12-20 14:07:00,
2013-12-20 06:12:00,30.0,8.1,24.97,NNE,16,16.0,-999.0,39,-99.99,,,-99.99,dwt +perl,2013-12-20 14:12:00,
2013-12-20 06:17:00,30.4,8.4,24.97,NNE,29,11.0,-999.0,39,-99.99,,,-99.99,dwt +perl,2013-12-20 14:17:00,
2013-12-20 06:22:00,30.1,8.7,24.97,NNE,21,14.0,-999.0,40,-99.99,,,-99.99,dwt +perl,2013-12-20 14:22:00,
2013-12-20 06:37:00,36.5,3.2,24.98,NE,38,9.0,-999.0,24,-99.99,,,-99.99,dwt +perl,2013-12-20 14:37:00,
2013-12-20 06:39:00,30.8,8.8,24.97,NNE,32,11.0,-999.0,39,-99.99,,,-99.99,dwt +perl,2013-12-20 14:39:00,
2013-12-20 06:42:00,36.0,4.5,24.97,NE,45,12.0,-999.0,26,-99.99,,,-99.99,dwt +perl,2013-12-20 14:42:00,
2013-12-20 06:44:00,34.0,4.4,24.97,NNE,28,11.0,-999.0,28,-99.99,,,-99.99,dwt +perl,2013-12-20 14:44:00,
2013-12-20 06:47:00,34.7,6.5,24.98,NE,36,6.0,-999.0,30,-99.99,,,-99.99,dwt +perl,2013-12-20 14:47:00,
2013-12-20 06:52:00,32.5,6.6,24.98,NNE,33,6.0,-999.0,33,-99.99,,,-99.99,dwt +perl,2013-12-20 14:52:00,
2013-12-20 06:57:00,31.9,7.4,24.98,NE,44,6.0,-999.0,35,-99.99,,,-99.99,dwt +perl,2013-12-20 14:57:00,
2013-12-20 07:02:00,30.8,7.0,24.98,NE,41,12.0,-999.0,36,-99.99,,,-99.99,dwt +perl,2013-12-20 15:02:00,
2013-12-20 07:07:00,32.1,6.9,24.97,NE,43,11.0,-999.0,34,-99.99,,,-99.99,dwt +perl,2013-12-20 15:07:00,
2013-12-20 07:12:00,33.8,5.7,24.97,NE,39,8.0,-999.0,30,-99.99,,,-99.99,dwt +perl,2013-12-20 15:12:00,
2013-12-20 07:17:00,34.4,5.5,24.98,NE,43,11.0,-999.0,29,-99.99,,,-99.99,dwt +perl,2013-12-20 15:17:00,
2013-12-20 07:22:00,34.5,5.6,24.98,NE,36,15.0,-999.0,29,-99.99,,,-99.99,dwt +perl,2013-12-20 15:22:00,
2013-12-20 07:27:00,34.5,5.6,24.98,NE,41,8.0,-999.0,29,-99.99,,,-99.99,dwt +perl,2013-12-20 15:27:00,
2013-12-20 07:32:00,33.9,6.5,24.99,NE,44,9.0,-999.0,31,-99.99,,,-99.99,dwt +perl,2013-12-20 15:32:00,
2013-12-20 07:42:00,34.3,8.9,24.99,NE,45,5.0,-999.0,34,-99.99,,,-99.99,dwt +perl,2013-12-20 15:42:00,
2013-12-20 07:47:00,33.9,9.2,24.99,NE,47,5.0,-999.0,35,-99.99,,,-99.99,dwt +perl,2013-12-20 15:47:00,
2013-12-20 07:49:00,34.2,7.4,24.98,NE,43,8.0,-999.0,32,-99.99,,,-99.99,dwt +perl,2013-12-20 15:49:00,
2013-12-20 07:52:00,34.7,8.6,25.00,NNE,28,6.0,-999.0,33,-99.99,,,-99.99,dwt +perl,2013-12-20 15:52:00,
2013-12-20 07:57:00,33.8,10.3,25.00,NE,37,8.0,-999.0,37,-99.99,,,-99.99,dwt +perl,2013-12-20 15:57:00,
2013-12-20 08:12:00,33.2,10.4,25.00,ENE,58,14.0,-999.0,38,-99.99,,,-99.99,dwt +perl,2013-12-20 16:12:00,
2013-12-20 08:14:00,32.5,9.7,25.00,ENE,63,8.0,-999.0,38,-99.99,,,-99.99,dwt +perl,2013-12-20 16:14:00,
2013-12-20 08:19:00,32.7,9.9,25.00,ENE,58,18.0,-999.0,38,-99.99,,,-99.99,dwt +perl,2013-12-20 16:19:00,
2013-12-20 08:22:00,33.0,10.2,25.01,ENE,60,14.0,-999.0,38,-99.99,,,-99.99,dwt +perl,2013-12-20 16:22:00,
2013-12-20 08:29:00,33.8,10.3,25.01,NE,55,17.0,-999.0,37,-99.99,,,-99.99,dwt +perl,2013-12-20 16:29:00,
2013-12-20 08:32:00,33.5,11.8,25.00,ENE,60,13.0,-999.0,40,-99.99,,,-99.99,dwt +perl,2013-12-20 16:32:00,
2013-12-20 08:37:00,33.7,11.4,25.01,NE,56,14.0,-999.0,39,-99.99,,,-99.99,dwt +perl,2013-12-20 16:37:00,
2013-12-20 08:39:00,33.0,10.8,25.01,NE,47,12.0,-999.0,39,-99.99,,,-99.99,dwt +perl,2013-12-20 16:39:00,
2013-12-20 08:47:00,33.9,13.2,25.01,NE,52,14.0,-999.0,42,-99.99,,,-99.99,dwt +perl,2013-12-20 16:47:00,
2013-12-20 08:52:00,34.1,12.9,25.02,NE,56,12.0,-999.0,41,-99.99,,,-99.99,dwt +perl,2013-12-20 16:52:00,
2013-12-20 08:54:00,34.0,12.2,25.01,ENE,58,13.0,-999.0,40,-99.99,,,-99.99,dwt +perl,2013-12-20 16:54:00,
2013-12-20 08:57:00,34.1,12.3,25.02,NE,47,11.0,-999.0,40,-99.99,,,-99.99,dwt +perl,2013-12-20 16:57:00,
2013-12-20 09:07:00,35.6,12.5,25.02,NE,50,11.0,-999.0,38,-99.99,,,-99.99,dwt +perl,2013-12-20 17:07:00,
2013-12-20 09:12:00,36.5,10.2,25.02,NNE,33,6.0,-999.0,33,-99.99,,,-99.99,dwt +perl,2013-12-20 17:12:00,
2013-12-20 09:14:00,34.6,12.2,25.02,NE,54,16.0,-999.0,39,-99.99,,,-99.99,dwt +perl,2013-12-20 17:14:00,
2013-12-20 09:29:00,37.1,11.4,25.03,NE,52,13.0,-999.0,34,-99.99,,,-99.99,dwt +perl,2013-12-20 17:29:00,
2013-12-20 09:34:00,36.9,12.5,25.03,NE,56,11.0,-999.0,36,-99.99,,,-99.99,dwt +perl,2013-12-20 17:34:00,
2013-12-20 09:39:00,36.2,12.5,25.03,ENE,58,14.0,-999.0,37,-99.99,,,-99.99,dwt +perl,2013-12-20 17:39:00,
2013-12-20 09:42:00,37.2,12.7,25.03,NE,46,15.0,-999.0,36,-99.99,,,-99.99,dwt +perl,2013-12-20 17:42:00,
2013-12-20 09:44:00,36.2,14.2,25.03,NE,56,10.0,-999.0,40,-99.99,,,-99.99,dwt +perl,2013-12-20 17:44:00,
2013-12-20 09:47:00,37.7,13.2,25.03,NNE,33,14.0,-999.0,36,-99.99,,,-99.99,dwt +perl,2013-12-20 17:47:00,
2013-12-20 09:49:00,36.6,12.2,25.03,ENE,76,9.0,-999.0,36,-99.99,,,-99.99,dwt +perl,2013-12-20 17:49:00,
2013-12-20 09:52:00,38.1,11.6,25.03,NE,41,6.0,-999.0,33,-99.99,,,-99.99,dwt +perl,2013-12-20 17:52:00,
2013-12-20 09:57:00,38.1,12.2,25.03,ENE,60,9.0,-999.0,34,-99.99,,,-99.99,dwt +perl,2013-12-20 17:57:00,
2013-12-20 10:07:00,38.5,13.2,25.03,NE,44,7.0,-999.0,35,-99.99,,,-99.99,dwt +perl,2013-12-20 18:07:00,
2013-12-20 10:14:00,38.3,13.1,25.03,NE,37,9.0,-999.0,35,-99.99,,,-99.99,dwt +perl,2013-12-20 18:14:00,
2013-12-20 10:24:00,38.3,13.1,25.03,NE,54,13.0,-999.0,35,-99.99,,,-99.99,dwt +perl,2013-12-20 18:24:00,
2013-12-20 10:27:00,38.4,14.4,25.03,NE,56,19.0,-999.0,37,-99.99,,,-99.99,dwt +perl,2013-12-20 18:27:00,
2013-12-20 10:29:00,38.3,13.7,25.03,ENE,57,18.0,-999.0,36,-99.99,,,-99.99,dwt +perl,2013-12-20 18:29:00,
2013-12-20 10:32:00,38.2,14.2,25.03,NE,47,14.0,-999.0,37,-99.99,,,-99.99,dwt +perl,2013-12-20 18:32:00,
2013-12-20 10:34:00,38.2,14.2,25.03,NE,45,7.0,-999.0,37,-99.99,,,-99.99,dwt +perl,2013-12-20 18:34:00,
2013-12-20 10:47:00,38.1,14.8,25.03,NE,43,8.0,-999.0,38,-99.99,,,-99.99,dwt +perl,2013-12-20 18:47:00,
2013-12-20 10:49:00,37.9,14.0,25.03,NE,52,13.0,-999.0,37,-99.99,,,-99.99,dwt +perl,2013-12-20 18:49:00,
2013-12-20 10:54:00,37.7,15.6,25.03,NE,48,8.0,-999.0,40,-99.99,,,-99.99,dwt +perl,2013-12-20 18:54:00,
2013-12-20 11:04:00,38.6,15.2,25.04,NE,41,17.0,-999.0,38,-99.99,,,-99.99,dwt +perl,2013-12-20 19:04:00,
2013-12-20 11:09:00,38.6,12.7,25.03,ENE,57,14.0,-999.0,34,-99.99,,,-99.99,dwt +perl,2013-12-20 19:09:00,
2013-12-20 11:14:00,38.9,13.6,25.03,ENE,74,17.0,-999.0,35,-99.99,,,-99.99,dwt +perl,2013-12-20 19:14:00,
2013-12-20 11:17:00,39.9,13.1,25.04,NNE,18,11.0,-999.0,33,-99.99,,,-99.99,dwt +perl,2013-12-20 19:17:00,
2013-12-20 11:19:00,39.4,12.0,25.03,NE,48,14.0,-999.0,32,-99.99,,,-99.99,dwt +perl,2013-12-20 19:19:00,
2013-12-20 11:22:00,40.0,12.6,25.03,NE,51,22.0,-999.0,32,-99.99,,,-99.99,dwt +perl,2013-12-20 19:22:00,
2013-12-20 11:24:00,39.6,11.5,25.03,NE,45,9.0,-999.0,31,-99.99,,,-99.99,dwt +perl,2013-12-20 19:24:00,
2013-12-20 11:27:00,40.1,11.2,25.03,NE,43,16.0,-999.0,30,-99.99,,,-99.99,dwt +perl,2013-12-20 19:27:00,
2013-12-20 11:32:00,40.0,11.1,25.03,NE,48,13.0,-999.0,30,-99.99,,,-99.99,dwt +perl,2013-12-20 19:32:00,
2013-12-20 11:37:00,40.1,10.4,25.03,NE,53,17.0,-999.0,29,-99.99,,,-99.99,dwt +perl,2013-12-20 19:37:00,
2013-12-20 11:54:00,40.1,8.8,25.03,NE,49,11.0,-999.0,27,-99.99,,,-99.99,dwt +perl,2013-12-20 19:54:00,
2013-12-20 11:59:00,40.2,8.9,25.02,NE,43,16.0,-999.0,27,-99.99,,,-99.99,dwt +perl,2013-12-20 19:59:00,
2013-12-20 12:04:00,40.5,7.5,25.03,ENE,59,5.0,-999.0,25,-99.99,,,-99.99,dwt +perl,2013-12-20 20:04:00,
2013-12-20 12:09:00,40.8,5.9,25.02,NE,56,17.0,-999.0,23,-99.99,,,-99.99,dwt +perl,2013-12-20 20:09:00,
2013-12-20 12:12:00,41.1,4.2,25.01,NE,52,11.0,-999.0,21,-99.99,,,-99.99,dwt +perl,2013-12-20 20:12:00,
2013-12-20 12:14:00,40.8,4.9,25.02,NNE,24,15.0,-999.0,22,-99.99,,,-99.99,dwt +perl,2013-12-20 20:14:00,
2013-12-20 12:19:00,40.8,4.9,25.01,NE,52,20.0,-999.0,22,-99.99,,,-99.99,dwt +perl,2013-12-20 20:19:00,
2013-12-20 12:27:00,40.6,4.8,25.01,NE,43,19.0,-999.0,22,-99.99,,,-99.99,dwt +perl,2013-12-20 20:27:00,
2013-12-20 12:29:00,41.2,4.3,25.02,NE,54,27.0,-999.0,21,-99.99,,,-99.99,dwt +perl,2013-12-20 20:29:00,
2013-12-20 12:32:00,40.6,5.7,25.01,NE,44,11.0,-999.0,23,-99.99,,,-99.99,dwt +perl,2013-12-20 20:32:00,
2013-12-20 12:34:00,40.8,4.9,25.01,NE,49,14.0,-999.0,22,-99.99,,,-99.99,dwt +perl,2013-12-20 20:34:00,
2013-12-20 12:49:00,40.8,1.8,25.02,NE,38,8.0,-999.0,19,-99.99,,,-99.99,dwt +perl,2013-12-20 20:49:00,
2013-12-20 12:52:00,40.8,3.9,25.02,NNE,21,10.0,-999.0,21,-99.99,,,-99.99,dwt +perl,2013-12-20 20:52:00,
2013-12-20 12:54:00,41.0,4.1,25.01,NE,39,12.0,-999.0,21,-99.99,,,-99.99,dwt +perl,2013-12-20 20:54:00,
2013-12-20 12:59:00,40.9,0.7,25.01,NE,44,11.0,-999.0,18,-99.99,,,-99.99,dwt +perl,2013-12-20 20:59:00,
2013-12-20 13:02:00,40.5,5.7,25.01,NNE,33,12.0,-999.0,23,-99.99,,,-99.99,dwt +perl,2013-12-20 21:02:00,
2013-12-20 13:09:00,40.5,3.7,25.01,NE,35,3.0,-999.0,21,-99.99,,,-99.99,dwt +perl,2013-12-20 21:09:00,
2013-12-20 13:19:00,40.2,5.4,25.02,NE,45,11.0,-999.0,23,-99.99,,,-99.99,dwt +perl,2013-12-20 21:19:00,
2013-12-20 13:24:00,39.8,3.1,25.02,NNE,25,19.0,-999.0,21,-99.99,,,-99.99,dwt +perl,2013-12-20 21:24:00,
2013-12-20 13:29:00,39.7,5.9,25.02,NE,46,8.0,-999.0,24,-99.99,,,-99.99,dwt +perl,2013-12-20 21:29:00,
2013-12-20 13:34:00,39.5,4.8,25.02,NNE,31,9.0,-999.0,23,-99.99,,,-99.99,dwt +perl,2013-12-20 21:34:00,
2013-12-20 13:39:00,39.8,7.7,25.02,NE,54,12.0,-999.0,26,-99.99,,,-99.99,dwt +perl,2013-12-20 21:39:00,
2013-12-20 13:44:00,39.7,6.8,25.02,NE,45,3.0,-999.0,25,-99.99,,,-99.99,dwt +perl,2013-12-20 21:44:00,
2013-12-20 13:49:00,39.5,5.7,25.02,NNE,21,7.0,-999.0,24,-99.99,,,-99.99,dwt +perl,2013-12-20 21:49:00,
2013-12-20 13:54:00,39.3,6.4,25.02,NW,322,8.0,-999.0,25,-99.99,,,-99.99,dwt +perl,2013-12-20 21:54:00,
2013-12-20 13:59:00,38.9,4.3,25.02,NNE,31,11.0,-999.0,23,-99.99,,,-99.99,dwt +perl,2013-12-20 21:59:00,
2013-12-20 14:02:00,39.1,5.4,25.02,NNE,29,3.0,-999.0,24,-99.99,,,-99.99,dwt +perl,2013-12-20 22:02:00,
2013-12-20 14:09:00,39.1,5.4,25.02,NNE,29,7.0,-999.0,24,-99.99,,,-99.99,dwt +perl,2013-12-20 22:09:00,
2013-12-20 14:19:00,39.1,5.4,25.02,NE,34,4.0,-999.0,24,-99.99,,,-99.99,dwt +perl,2013-12-20 22:19:00,
2013-12-20 14:24:00,39.5,4.8,25.03,NNE,18,13.0,-999.0,23,-99.99,,,-99.99,dwt +perl,2013-12-20 22:24:00,
2013-12-20 14:27:00,38.9,5.2,25.03,NNE,29,4.0,-999.0,24,-99.99,,,-99.99,dwt +perl,2013-12-20 22:27:00,
2013-12-20 14:29:00,39.1,5.4,25.03,ENE,59,3.0,-999.0,24,-99.99,,,-99.99,dwt +perl,2013-12-20 22:29:00,
2013-12-20 14:34:00,38.9,5.2,25.03,North,8,3.0,-999.0,24,-99.99,,,-99.99,dwt +perl,2013-12-20 22:34:00,
2013-12-20 14:44:00,38.9,5.2,25.03,NNE,32,1.0,-999.0,24,-99.99,,,-99.99,dwt +perl,2013-12-20 22:44:00,
2013-12-20 14:49:00,39.3,5.6,25.03,NNE,29,3.0,-999.0,24,-99.99,,,-99.99,dwt +perl,2013-12-20 22:49:00,
2013-12-20 14:54:00,39.8,4.1,25.03,North,354,7.0,-999.0,22,-99.99,,,-99.99,dwt +perl,2013-12-20 22:54:00,
2013-12-20 14:57:00,40.2,4.4,25.03,NNE,20,7.0,-999.0,22,-99.99,,,-99.99,dwt +perl,2013-12-20 22:57:00,
2013-12-20 14:59:00,39.8,5.1,25.03,NNW,330,10.0,-999.0,23,-99.99,,,-99.99,dwt +perl,2013-12-20 22:59:00,
2013-12-20 15:04:00,40.0,4.3,25.03,North,349,6.0,-999.0,22,-99.99,,,-99.99,dwt +perl,2013-12-20 23:04:00,
2013-12-20 15:14:00,40.2,2.4,25.03,NNE,30,7.0,-999.0,20,-99.99,,,-99.99,dwt +perl,2013-12-20 23:14:00,
2013-12-20 15:19:00,40.3,2.5,25.03,NW,318,10.0,-999.0,20,-99.99,,,-99.99,dwt +perl,2013-12-20 23:19:00,
2013-12-20 15:24:00,40.4,1.4,25.03,NNE,30,7.0,-999.0,19,-99.99,,,-99.99,dwt +perl,2013-12-20 23:24:00,
2013-12-20 15:29:00,40.3,2.5,25.03,NNW,339,8.0,-999.0,20,-99.99,,,-99.99,dwt +perl,2013-12-20 23:29:00,
2013-12-20 15:34:00,40.8,1.8,25.03,NNE,23,6.0,-999.0,19,-99.99,,,-99.99,dwt +perl,2013-12-20 23:34:00,
2013-12-20 15:39:00,40.5,1.5,25.04,NW,308,8.0,-999.0,19,-99.99,,,-99.99,dwt +perl,2013-12-20 23:39:00,
2013-12-20 15:44:00,40.1,1.2,25.03,NNE,25,7.0,-999.0,19,-99.99,,,-99.99,dwt +perl,2013-12-20 23:44:00,
2013-12-20 15:47:00,40.0,1.1,25.04,NNE,27,10.0,-999.0,19,-99.99,,,-99.99,dwt +perl,2013-12-20 23:47:00,
2013-12-20 15:49:00,40.1,1.2,25.03,NNE,25,11.0,-999.0,19,-99.99,,,-99.99,dwt +perl,2013-12-20 23:49:00,
2013-12-20 15:52:00,39.8,0.9,25.04,NNE,33,9.0,-999.0,19,-99.99,,,-99.99,dwt +perl,2013-12-20 23:52:00,
2013-12-20 15:54:00,40.0,2.2,25.04,NNE,20,15.0,-999.0,20,-99.99,,,-99.99,dwt +perl,2013-12-20 23:54:00,
2013-12-20 16:09:00,39.3,1.6,25.03,NNE,17,10.0,-999.0,20,-99.99,,,-99.99,dwt +perl,2013-12-21 00:09:00,
2013-12-20 16:14:00,39.3,0.5,25.03,NNE,33,11.0,-999.0,19,-99.99,,,-99.99,dwt +perl,2013-12-21 00:14:00,
2013-12-20 16:19:00,39.0,1.4,25.04,NNE,24,8.0,-999.0,20,-99.99,,,-99.99,dwt +perl,2013-12-21 00:19:00,
2013-12-20 16:24:00,38.8,1.2,25.03,NE,50,14.0,-999.0,20,-99.99,,,-99.99,dwt +perl,2013-12-21 00:24:00,
2013-12-20 16:29:00,39.1,1.5,25.03,NNE,12,14.0,-999.0,20,-99.99,,,-99.99,dwt +perl,2013-12-21 00:29:00,
2013-12-20 16:34:00,39.4,1.7,25.03,NNE,23,8.0,-999.0,20,-99.99,,,-99.99,dwt +perl,2013-12-21 00:34:00,
2013-12-20 16:39:00,39.1,1.5,25.03,NNE,18,10.0,-999.0,20,-99.99,,,-99.99,dwt +perl,2013-12-21 00:39:00,
2013-12-20 16:44:00,39.4,1.7,25.04,NNE,32,9.0,-999.0,20,-99.99,,,-99.99,dwt +perl,2013-12-21 00:44:00,
2013-12-20 16:49:00,39.3,1.6,25.04,NNE,23,11.0,-999.0,20,-99.99,,,-99.99,dwt +perl,2013-12-21 00:49:00,
2013-12-20 16:54:00,39.4,1.7,25.04,NNE,30,11.0,-999.0,20,-99.99,,,-99.99,dwt +perl,2013-12-21 00:54:00,
2013-12-20 16:59:00,38.8,1.2,25.04,North,10,9.0,-999.0,20,-99.99,,,-99.99,dwt +perl,2013-12-21 00:59:00,
2013-12-20 17:04:00,39.0,1.4,25.04,NNE,20,17.0,-999.0,20,-99.99,,,-99.99,dwt +perl,2013-12-21 01:04:00,
2013-12-20 17:07:00,39.3,3.7,25.04,NNE,27,24.0,-999.0,22,-99.99,,,-99.99,dwt +perl,2013-12-21 01:07:00,
2013-12-20 17:09:00,39.4,2.8,25.04,NNE,24,11.0,-999.0,21,-99.99,,,-99.99,dwt +perl,2013-12-21 01:09:00,
2013-12-20 17:14:00,39.3,3.7,25.04,NNE,22,6.0,-999.0,22,-99.99,,,-99.99,dwt +perl,2013-12-21 01:14:00,
2013-12-20 17:24:00,39.6,3.9,25.04,NNE,33,10.0,-999.0,22,-99.99,,,-99.99,dwt +perl,2013-12-21 01:24:00,
2013-12-20 17:29:00,39.6,4.9,25.04,NNE,15,11.0,-999.0,23,-99.99,,,-99.99,dwt +perl,2013-12-21 01:29:00,
2013-12-20 17:34:00,39.5,3.8,25.04,NE,50,10.0,-999.0,22,-99.99,,,-99.99,dwt +perl,2013-12-21 01:34:00,
2013-12-20 17:39:00,39.5,4.8,25.04,NE,39,12.0,-999.0,23,-99.99,,,-99.99,dwt +perl,2013-12-21 01:39:00,
2013-12-20 17:44:00,39.6,4.9,25.05,NNE,24,9.0,-999.0,23,-99.99,,,-99.99,dwt +perl,2013-12-21 01:44:00,
2013-12-20 17:49:00,39.7,6.8,25.05,NNE,25,15.0,-999.0,25,-99.99,,,-99.99,dwt +perl,2013-12-21 01:49:00,
2013-12-20 17:54:00,40.5,9.2,25.05,NNE,17,17.0,-999.0,27,-99.99,,,-99.99,dwt +perl,2013-12-21 01:54:00,
2013-12-20 17:59:00,40.9,7.8,25.04,NE,42,20.0,-999.0,25,-99.99,,,-99.99,dwt +perl,2013-12-21 01:59:00,
2013-12-20 18:04:00,41.3,9.0,25.05,NNE,29,10.0,-999.0,26,-99.99,,,-99.99,dwt +perl,2013-12-21 02:04:00,
2013-12-20 18:09:00,41.4,9.9,25.05,NNE,27,11.0,-999.0,27,-99.99,,,-99.99,dwt +perl,2013-12-21 02:09:00,
2013-12-20 18:12:00,41.6,10.9,25.06,NE,37,16.0,-999.0,28,-99.99,,,-99.99,dwt +perl,2013-12-21 02:12:00,
2013-12-20 18:14:00,41.5,11.6,25.05,NE,35,13.0,-999.0,29,-99.99,,,-99.99,dwt +perl,2013-12-21 02:14:00,
2013-12-20 18:19:00,41.6,10.9,25.05,NE,35,10.0,-999.0,28,-99.99,,,-99.99,dwt +perl,2013-12-21 02:19:00,
2013-12-20 18:29:00,41.5,12.4,25.05,North,4,17.0,-999.0,30,-99.99,,,-99.99,dwt +perl,2013-12-21 02:29:00,
2013-12-20 18:34:00,41.9,11.2,25.05,NNE,26,13.0,-999.0,28,-99.99,,,-99.99,dwt +perl,2013-12-21 02:34:00,
2013-12-20 18:39:00,42.4,12.4,25.06,NNE,31,6.0,-999.0,29,-99.99,,,-99.99,dwt +perl,2013-12-21 02:39:00,
2013-12-20 18:44:00,42.4,12.4,25.06,NNE,21,15.0,-999.0,29,-99.99,,,-99.99,dwt +perl,2013-12-21 02:44:00,
2013-12-20 18:49:00,42.2,13.0,25.06,NE,46,10.0,-999.0,30,-99.99,,,-99.99,dwt +perl,2013-12-21 02:49:00,
2013-12-20 18:54:00,42.4,13.9,25.06,NNE,25,18.0,-999.0,31,-99.99,,,-99.99,dwt +perl,2013-12-21 02:54:00,
2013-12-20 18:59:00,42.6,13.4,25.06,NNE,23,19.0,-999.0,30,-99.99,,,-99.99,dwt +perl,2013-12-21 02:59:00,
2013-12-20 19:04:00,42.5,16.1,25.05,NNE,28,15.0,-999.0,34,-99.99,,,-99.99,dwt +perl,2013-12-21 03:04:00,
2013-12-20 19:09:00,43.0,17.2,25.06,NNE,33,11.0,-999.0,35,-99.99,,,-99.99,dwt +perl,2013-12-21 03:09:00,
2013-12-20 19:14:00,42.7,15.6,25.06,North,354,8.0,-999.0,33,-99.99,,,-99.99,dwt +perl,2013-12-21 03:14:00,
2013-12-20 19:19:00,42.7,17.0,25.06,NNE,23,14.0,-999.0,35,-99.99,,,-99.99,dwt +perl,2013-12-21 03:19:00,
2013-12-20 19:24:00,42.3,13.8,25.06,NNE,25,11.0,-999.0,31,-99.99,,,-99.99,dwt +perl,2013-12-21 03:24:00,
2013-12-20 19:29:00,42.3,15.3,25.06,NNE,20,12.0,-999.0,33,-99.99,,,-99.99,dwt +perl,2013-12-21 03:29:00,
2013-12-20 19:34:00,42.7,16.3,25.06,NE,35,11.0,-999.0,34,-99.99,,,-99.99,dwt +perl,2013-12-21 03:34:00,
2013-12-20 19:39:00,43.2,18.1,25.06,NNE,28,10.0,-999.0,36,-99.99,,,-99.99,dwt +perl,2013-12-21 03:39:00,
2013-12-20 19:42:00,44.3,20.3,25.07,NNE,25,12.0,-999.0,38,-99.99,,,-99.99,dwt +perl,2013-12-21 03:42:00,
2013-12-20 19:44:00,43.7,17.9,25.07,North,359,12.0,-999.0,35,-99.99,,,-99.99,dwt +perl,2013-12-21 03:44:00,
2013-12-20 19:49:00,44.1,18.9,25.07,NNE,12,15.0,-999.0,36,-99.99,,,-99.99,dwt +perl,2013-12-21 03:49:00,
2013-12-20 19:57:00,44.7,22.5,25.07,NNE,25,15.0,-999.0,41,-99.99,,,-99.99,dwt +perl,2013-12-21 03:57:00,
2013-12-20 19:59:00,44.4,20.4,25.07,NNE,20,17.0,-999.0,38,-99.99,,,-99.99,dwt +perl,2013-12-21 03:59:00,
2013-12-20 20:04:00,44.6,22.4,25.07,NNE,16,12.0,-999.0,41,-99.99,,,-99.99,dwt +perl,2013-12-21 04:04:00,
2013-12-20 20:14:00,45.0,23.3,25.07,NNE,22,11.0,-999.0,42,-99.99,,,-99.99,dwt +perl,2013-12-21 04:14:00,
2013-12-20 20:17:00,44.7,23.0,25.07,NNE,23,11.0,-999.0,42,-99.99,,,-99.99,dwt +perl,2013-12-21 04:17:00,
2013-12-20 20:19:00,44.9,22.6,25.07,NNE,21,6.0,-999.0,41,-99.99,,,-99.99,dwt +perl,2013-12-21 04:19:00,
2013-12-20 20:24:00,44.9,23.2,25.08,NNW,337,9.0,-999.0,42,-99.99,,,-99.99,dwt +perl,2013-12-21 04:24:00,
2013-12-20 20:32:00,44.4,24.4,25.08,NNE,24,11.0,-999.0,45,-99.99,,,-99.99,dwt +perl,2013-12-21 04:32:00,
2013-12-20 20:34:00,44.5,23.4,25.07,NNE,19,8.0,-999.0,43,-99.99,,,-99.99,dwt +perl,2013-12-21 04:34:00,
2013-12-20 20:37:00,44.4,23.3,25.08,NNE,16,13.0,-999.0,43,-99.99,,,-99.99,dwt +perl,2013-12-21 04:37:00,
2013-12-20 20:39:00,44.4,23.9,25.08,NNE,12,9.0,-999.0,44,-99.99,,,-99.99,dwt +perl,2013-12-21 04:39:00,
2013-12-20 20:52:00,44.1,23.0,25.08,NNE,29,6.0,-999.0,43,-99.99,,,-99.99,dwt +perl,2013-12-21 04:52:00,
2013-12-20 20:54:00,44.1,21.9,25.08,North,349,9.0,-999.0,41,-99.99,,,-99.99,dwt +perl,2013-12-21 04:54:00,
2013-12-20 20:57:00,44.2,23.7,25.08,NE,43,9.0,-999.0,44,-99.99,,,-99.99,dwt +perl,2013-12-21 04:57:00,
2013-12-20 20:59:00,44.0,22.4,25.08,NNW,346,14.0,-999.0,42,-99.99,,,-99.99,dwt +perl,2013-12-21 04:59:00,
2013-12-20 21:02:00,43.9,23.4,25.08,North,8,5.0,-999.0,44,-99.99,,,-99.99,dwt +perl,2013-12-21 05:02:00,
2013-12-20 21:07:00,44.0,23.5,25.08,NNE,16,7.0,-999.0,44,-99.99,,,-99.99,dwt +perl,2013-12-21 05:07:00,
2013-12-20 21:12:00,44.0,25.1,25.08,NNE,21,12.0,-999.0,47,-99.99,,,-99.99,dwt +perl,2013-12-21 05:12:00,
2013-12-20 21:17:00,44.3,25.4,25.08,NNE,31,9.0,-999.0,47,-99.99,,,-99.99,dwt +perl,2013-12-21 05:17:00,
2013-12-20 21:22:00,44.6,25.6,25.08,NNE,31,14.0,-999.0,47,-99.99,,,-99.99,dwt +perl,2013-12-21 05:22:00,
2013-12-20 21:27:00,44.5,26.0,25.08,NNE,12,6.0,-999.0,48,-99.99,,,-99.99,dwt +perl,2013-12-21 05:27:00,
2013-12-20 21:32:00,44.5,26.0,25.08,ENE,65,12.0,-999.0,48,-99.99,,,-99.99,dwt +perl,2013-12-21 05:32:00,
2013-12-20 21:37:00,45.0,27.0,25.08,NE,36,8.0,-999.0,49,-99.99,,,-99.99,dwt +perl,2013-12-21 05:37:00,
2013-12-20 21:42:00,45.4,27.9,25.08,NW,312,6.0,-999.0,50,-99.99,,,-99.99,dwt +perl,2013-12-21 05:42:00,
2013-12-20 21:47:00,45.4,27.9,25.08,NNE,20,11.0,-999.0,50,-99.99,,,-99.99,dwt +perl,2013-12-21 05:47:00,
2013-12-20 21:52:00,45.2,27.7,25.08,NNE,14,9.0,-999.0,50,-99.99,,,-99.99,dwt +perl,2013-12-21 05:52:00,
2013-12-20 21:57:00,45.2,28.1,25.08,NNE,16,9.0,-999.0,51,-99.99,,,-99.99,dwt +perl,2013-12-21 05:57:00,
2013-12-20 22:02:00,45.3,28.2,25.08,NE,44,7.0,-999.0,51,-99.99,,,-99.99,dwt +perl,2013-12-21 06:02:00,
2013-12-20 22:07:00,45.3,28.2,25.08,NW,305,17.0,-999.0,51,-99.99,,,-99.99,dwt +perl,2013-12-21 06:07:00,
2013-12-20 22:12:00,45.4,28.3,25.08,ENE,60,11.0,-999.0,51,-99.99,,,-99.99,dwt +perl,2013-12-21 06:12:00,
2013-12-20 22:17:00,45.6,28.5,25.08,North,354,7.0,-999.0,51,-99.99,,,-99.99,dwt +perl,2013-12-21 06:17:00,
2013-12-20 22:22:00,45.8,28.7,25.08,NW,319,5.0,-999.0,51,-99.99,,,-99.99,dwt +perl,2013-12-21 06:22:00,
2013-12-20 22:27:00,45.9,28.8,25.08,North,359,13.0,-999.0,51,-99.99,,,-99.99,dwt +perl,2013-12-21 06:27:00,
2013-12-20 22:32:00,46.1,29.0,25.08,North,359,10.0,-999.0,51,-99.99,,,-99.99,dwt +perl,2013-12-21 06:32:00,
2013-12-20 22:37:00,46.5,29.4,25.08,NNW,335,13.0,-999.0,51,-99.99,,,-99.99,dwt +perl,2013-12-21 06:37:00,
2013-12-20 22:42:00,46.7,29.5,25.08,NW,321,12.0,-999.0,51,-99.99,,,-99.99,dwt +perl,2013-12-21 06:42:00,
2013-12-20 22:47:00,46.9,29.2,25.08,WNW,289,15.0,-999.0,50,-99.99,,,-99.99,dwt +perl,2013-12-21 06:47:00,
2013-12-20 22:52:00,47.1,29.4,25.08,West,259,14.0,-999.0,50,-99.99,,,-99.99,dwt +perl,2013-12-21 06:52:00,
2013-12-20 22:57:00,47.5,29.8,25.08,North,354,9.0,-999.0,50,-99.99,,,-99.99,dwt +perl,2013-12-21 06:57:00,
2013-12-20 23:02:00,47.8,30.6,25.08,NW,310,14.0,-999.0,51,-99.99,,,-99.99,dwt +perl,2013-12-21 07:02:00,
2013-12-20 23:07:00,48.1,30.4,25.08,NNW,337,16.0,-999.0,50,-99.99,,,-99.99,dwt +perl,2013-12-21 07:07:00,
2013-12-20 23:12:00,48.2,30.4,25.08,NNW,345,8.0,-999.0,50,-99.99,,,-99.99,dwt +perl,2013-12-21 07:12:00,
2013-12-20 23:17:00,48.2,30.4,25.08,NE,37,11.0,-999.0,50,-99.99,,,-99.99,dwt +perl,2013-12-21 07:17:00,
2013-12-20 23:22:00,48.0,30.7,25.07,NW,314,11.0,-999.0,51,-99.99,,,-99.99,dwt +perl,2013-12-21 07:22:00,
2013-12-20 23:27:00,47.9,30.6,25.08,NNW,333,15.0,-999.0,51,-99.99,,,-99.99,dwt +perl,2013-12-21 07:27:00,
2013-12-20 23:32:00,47.9,30.6,25.08,NW,326,20.0,-999.0,51,-99.99,,,-99.99,dwt +perl,2013-12-21 07:32:00,
2013-12-20 23:37:00,48.1,30.8,25.07,NW,315,4.0,-999.0,51,-99.99,,,-99.99,dwt +perl,2013-12-21 07:37:00,
2013-12-20 23:42:00,47.8,31.0,25.07,NW,316,21.0,-999.0,52,-99.99,,,-99.99,dwt +perl,2013-12-21 07:42:00,
2013-12-20 23:47:00,47.7,30.9,25.07,NW,324,16.0,-999.0,52,-99.99,,,-99.99,dwt +perl,2013-12-21 07:47:00,
2013-12-20 23:52:00,47.6,30.9,25.07,NW,317,20.0,-999.0,52,-99.99,,,-99.99,dwt +perl,2013-12-21 07:52:00,
2013-12-20 23:57:00,47.6,30.9,25.06,NNW,344,13.0,-999.0,52,-99.99,,,-99.99,dwt +perl,2013-12-21 07:57:00,